Flight Track Log - Related Links

Times and Time Zones

All times are in EDT time to prevent confusion due to time zone crossing. See the PJC32 flight status page for this flight to view local times or setup timezone preferences in your user account.

Time Position Orientation Groundspeed Altitude Reporting Facility
EDT Latitude Longitude Course Direction KTS MPH feet Rate Location/Type
Sat 03:57:22 PM 26.1308 -81.8525 North 223 257 4,000  Level Miami Center
Sat 03:58:22 PM 26.1606 -81.9000 305° West 188 216 7,700 3,350 Climbing Miami Center
Sat 03:59:22 PM 26.2219 -81.8725 22° Northeast 146 168 10,700 2,650 Climbing Miami Center
Sat 04:00:22 PM 26.2997 -81.8617 North 212 244 13,000 2,200 Climbing Miami Center
Sat 04:01:22 PM 26.3836 -81.8469 North 265 305 15,100 2,300 Climbing Miami Center
Sat 04:02:00 PM 26.7657 -81.7500 North  Level FlightAware Approximate
Sat 04:02:22 PM 26.4739 -81.8297 10° North 303 349 17,600  Level Miami Center
Sat 04:03:22 PM 26.5619 -81.8194 North 311 358 19,500 2,000 Climbing Miami Center
Sat 04:04:22 PM 26.6564 -81.8072 North 322 371 21,600 2,000 Climbing Miami Center
Sat 04:05:22 PM 26.7531 -81.7858 11° North 336 387 23,500 1,850 Climbing Miami Center
Sat 04:06:22 PM 26.8497 -81.7736 North 346 398 25,300 1,850 Climbing Miami Center
Sat 04:07:22 PM 26.9547 -81.7547 North 357 411 27,200 1,900 Climbing Miami Center
Sat 04:08:22 PM 27.0506 -81.7542 360° North 357 411 29,100 1,850 Climbing Miami Center
Sat 04:09:22 PM 27.1456 -81.7861 343° North 348 400 30,900 1,750 Climbing Miami Center
Sat 04:10:22 PM 27.2281 -81.8131 344° North 348 400 32,600 1,750 Climbing Miami Center
Sat 04:11:22 PM 27.3242 -81.8147 359° North 348 400 34,400 1,900 Climbing Miami Center
Sat 04:12:22 PM 27.4258 -81.7722 20° North 343 395 36,400 1,900 Climbing Miami Center
Sat 04:13:22 PM 27.5167 -81.7364 19° North 343 395 38,200 1,800 Climbing Miami Center
Sat 04:14:22 PM 27.6033 -81.7050 18° North 338 389 40,000 1,400 Climbing Miami Center
Sat 04:15:22 PM 27.6794 -81.6753 19° North 330 380 41,000 500 Climbing Miami Center
Sat 04:16:22 PM 27.7753 -81.6772 359° North 324 373 41,000  Level Miami Center
Sat 04:17:22 PM 27.8753 -81.6836 357° North 337 388 41,000  Level Miami Center
Sat 04:18:22 PM 27.9767 -81.7067 349° North 360 414 41,000  Level Miami Center
Sat 04:19:22 PM 28.0850 -81.7161 356° North 374 430 41,000  Level Miami Center
Sat 04:20:22 PM 28.1875 -81.7042 North 374 430 41,000  Level Miami Center
Sat 04:21:22 PM 28.2903 -81.6944 North 369 425 41,000  Level Miami Center
Sat 04:22:14 PM 28.3947 -81.6819 North 365 420 41,000  Level Jacksonville Center
Sat 04:23:14 PM 28.5011 -81.6761 North 370 426 41,000  Level Jacksonville Center
Sat 04:24:14 PM 28.6072 -81.6653 North 370 426 41,000  Level Jacksonville Center
Sat 04:25:14 PM 28.7136 -81.6592 North 375 432 41,000  Level Jacksonville Center
Sat 04:26:14 PM 28.8200 -81.6483 North 381 438 41,000  Level Jacksonville Center
Sat 04:27:14 PM 28.9264 -81.6378 North 381 438 41,000  Level Jacksonville Center
Sat 04:28:14 PM 29.0347 -81.6292 North 386 444 41,000  Level Jacksonville Center
Sat 04:29:14 PM 29.1286 -81.6208 North 386 444 41,000 300 Level Jacksonville Center
Sat 04:30:14 PM 29.2308 -81.6122 North 381 438 41,600 900 Climbing Jacksonville Center
Sat 04:31:14 PM 29.3353 -81.6039 North 371 427 42,800 700 Climbing Jacksonville Center
Sat 04:32:14 PM 29.4394 -81.5906 North 366 421 43,000 100 Climbing Jacksonville Center
Sat 04:33:14 PM 29.5439 -81.6011 355° North 371 427 43,000  Level Jacksonville Center
Sat 04:34:14 PM 29.6425 -81.6406 341° North 366 421 43,000  Level Jacksonville Center
Sat 04:35:14 PM 29.7408 -81.6822 340° North 371 427 43,000  Level Jacksonville Center
Sat 04:36:14 PM 29.8456 -81.6953 354° North 371 427 43,000  Level Jacksonville Center
Sat 04:37:14 PM 29.9558 -81.6819 North 378 435 43,000  Level Jacksonville Center
Sat 04:38:14 PM 30.0622 -81.6661 North 383 441 43,000  Level Jacksonville Center
Sat 04:39:14 PM 30.1708 -81.6528 North 383 441 43,000  Level Jacksonville Center
Sat 04:40:14 PM 30.2792 -81.6369 North 388 447 43,000  Level Jacksonville Center
Sat 04:41:14 PM 30.3939 -81.6233 North 393 452 43,000 250 Level Jacksonville Center
Sat 04:42:14 PM 30.5147 -81.6122 North 398 458 43,500 800 Climbing Jacksonville Center
Sat 04:43:14 PM 30.6233 -81.6011 North 398 458 44,600 750 Climbing Jacksonville Center
Sat 04:44:14 PM 30.7297 -81.5875 North 386 444 45,000 200 Climbing Jacksonville Center
Sat 04:45:14 PM 30.8381 -81.5764 North 386 444 45,000  Level Jacksonville Center
Sat 04:46:14 PM 30.9528 -81.5603 North 391 450 45,000  Level Jacksonville Center
Sat 04:47:14 PM 31.0675 -81.5489 North 406 467 45,000  Level Jacksonville Center
Sat 04:48:14 PM 31.1842 -81.5350 North 411 473 45,000  Level Jacksonville Center
Sat 04:49:14 PM 31.3011 -81.5214 North 411 473 45,000  Level Jacksonville Center
Sat 04:50:14 PM 31.4136 -81.5025 North 406 467 45,000  Level Jacksonville Center
Sat 04:51:14 PM 31.5242 -81.4911 North 406 467 45,000  Level Jacksonville Center
Sat 04:52:14 PM 31.6261 -81.4775 North 400 460 45,000  Level Jacksonville Center
Sat 04:53:14 PM 31.7492 -81.4633 North 400 460 45,000  Level Jacksonville Center
Sat 04:54:14 PM 31.8494 -81.4519 North 405 466 45,000  Level Jacksonville Center
Sat 04:55:14 PM 31.9703 -81.4403 North 400 460 45,000  Level Jacksonville Center
Sat 04:56:14 PM 32.0850 -81.4261 North 408 470 45,000  Level Jacksonville Center
Sat 04:57:14 PM 32.1892 -81.4172 North 411 473 45,000  Level Jacksonville Center
Sat 04:58:14 PM 32.3122 -81.3981 North 406 467 45,000  Level Jacksonville Center
Sat 04:59:14 PM 32.4228 -81.3839 North 406 467 45,000  Level Jacksonville Center
Sat 05:00:14 PM 32.5228 -81.3700 North 406 467 45,000  Level Jacksonville Center
Sat 05:01:14 PM 32.6458 -81.3556 North 406 467 45,000  Level Jacksonville Center
Sat 05:02:14 PM 32.7458 -81.3414 North 406 467 45,000  Level Jacksonville Center
Sat 05:03:14 PM 32.8561 -81.3297 North 406 467 45,000  Level Jacksonville Center
Sat 05:04:14 PM 32.9689 -81.3153 North 406 467 45,000  Level Jacksonville Center
Sat 05:05:14 PM 33.0792 -81.3011 North 406 467 45,000  Level Jacksonville Center
Sat 05:06:14 PM 33.1897 -81.2842 North 406 467 45,000  Level Jacksonville Center
Sat 05:07:14 PM 33.3022 -81.2722 North 406 467 45,000  Level Jacksonville Center
Sat 05:09:10 PM 33.5161 -81.2408 North 385 443 45,000  Level Atlanta Center
Sat 05:10:10 PM 33.6389 -81.2242 North 397 457 45,000  Level Atlanta Center
Sat 05:11:10 PM 33.7492 -81.2106 North 397 457 45,000  Level Atlanta Center
Sat 05:12:10 PM 33.8636 -81.1969 North 402 463 45,000  Level Atlanta Center
Sat 05:13:10 PM 33.9739 -81.1831 North 402 463 45,000  Level Atlanta Center
Sat 05:14:10 PM 34.0864 -81.1669 North 407 468 45,000  Level Atlanta Center
Sat 05:15:10 PM 34.2008 -81.1531 North 407 468 45,000  Level Atlanta Center
Sat 05:16:10 PM 34.3131 -81.1392 North 402 463 45,000  Level Atlanta Center
Sat 05:17:10 PM 34.4275 -81.1275 North 402 463 45,000  Level Atlanta Center
Sat 05:18:10 PM 34.5297 -81.1164 North 402 463 45,000  Level Atlanta Center
Sat 05:19:10 PM 34.6439 -81.0972 North 407 468 45,000  Level Atlanta Center
Sat 05:20:10 PM 34.7583 -81.0833 North 407 468 45,000  Level Atlanta Center
Sat 05:21:10 PM 34.8747 -81.0664 North 407 468 45,000  Level Atlanta Center
Sat 05:22:10 PM 34.9869 -81.0497 North 407 468 45,000  Level Atlanta Center
Sat 05:23:10 PM 35.1014 -81.0356 North 407 468 45,000  Level Atlanta Center
Sat 05:24:10 PM 35.2158 -81.0211 North 407 468 45,000  Level Atlanta Center
Sat 05:25:10 PM 35.3303 -81.0042 North 407 468 45,000  Level Atlanta Center
Sat 05:26:10 PM 35.4467 -80.9847 North 412 474 45,000  Level Atlanta Center
Sat 05:27:10 PM 35.5653 -80.9700 North 417 480 45,000  Level Atlanta Center
Sat 05:28:10 PM 35.6817 -80.9528 North 424 488 45,000  Level Atlanta Center
Sat 05:29:10 PM 35.8000 -80.9381 North 424 488 45,000  Level Atlanta Center
Sat 05:30:10 PM 35.9186 -80.9233 North 424 488 45,000  Level Atlanta Center
Sat 05:31:10 PM 36.0475 -80.9056 North 419 482 45,000  Level Atlanta Center
Sat 05:32:10 PM 36.1661 -80.8908 North 425 489 45,000 -450 Level Atlanta Center
Sat 05:33:10 PM 36.2825 -80.8758 North 418 481 44,100 -1,200 Descending Atlanta Center
Sat 05:34:10 PM 36.4008 -80.8583 North 424 488 42,600 -1,529 Descending Atlanta Center
Sat 05:35:47 PM 36.5961 -80.8319 North 440 506 40,100 -1,500 Descending Indianapolis Center
Sat 05:36:22 PM 36.6633 -80.8225 North 441 507 39,300 -1,438 Descending Washington Center
Sat 05:37:23 PM 36.7833 -80.8022 North 436 502 37,800 -1,140 Descending Washington Center
Sat 05:38:23 PM 36.8986 -80.7917 North 421 484 37,000 -403 Descending Washington Center
Sat 05:39:22 PM 37.0225 -80.7742 North 428 493 37,000  Level Washington Center
Sat 05:40:22 PM 37.1336 -80.7608 North 438 504 37,000  Level Washington Center
Sat 05:41:22 PM 37.2553 -80.7428 North 444 511 37,000 -50 Level Washington Center
Sat 05:42:23 PM 37.3792 -80.7250 North 444 511 36,900 -934 Descending Washington Center
Sat 05:43:24 PM 37.5031 -80.7072 North 444 511 35,100 -942 Descending Washington Center
Sat 05:44:24 PM 37.6417 -80.6878 North 452 520 35,000 -254 Descending Washington Center
Sat 05:45:22 PM 37.7681 -80.6544 12° North 452 520 34,600 -958 Descending Washington Center
Sat 05:46:23 PM 37.8925 -80.6258 10° North 452 520 33,100 -1,426 Descending Washington Center
Sat 05:47:24 PM 38.0231 -80.5925 11° North 452 520 31,700 -1,438 Descending Washington Center
Sat 05:48:24 PM 38.1539 -80.5589 11° North 457 526 30,200 -1,525 Descending Washington Center
Sat 05:49:22 PM 38.2675 -80.5322 10° North 471 542 28,700 -1,558 Descending Washington Center
Sat 05:50:08 PM 38.3750 -80.4961 15° North 464 534 27,500 -1,458 Descending Indianapolis Center
Sat 05:51:09 PM 38.5022 -80.4639 11° North 465 535 26,100 -1,415 Descending Indianapolis Center
Sat 05:52:11 PM 38.6258 -80.4319 11° North 457 526 24,600 -1,512 Descending Indianapolis Center
Sat 05:53:12 PM 38.7500 -80.3997 11° North 454 522 23,000 -1,512 Descending Indianapolis Center
Sat 05:54:14 PM 38.8711 -80.3667 12° North 448 516 21,500 -976 Descending Indianapolis Center
Sat 05:55:15 PM 38.9917 -80.3367 11° North 443 510 21,000 -121 Descending Indianapolis Center
Sat 05:58:22 PM 39.3850 -80.2581 North 425 489 21,000 -243 Level Cleveland Center
Sat 05:59:22 PM 39.4789 -80.2522 North 419 482 20,000 -1,250 Descending Cleveland Center
Sat 06:00:22 PM 39.5956 -80.2464 North 419 482 18,500 -1,750 Descending Cleveland Center
Sat 06:01:22 PM 39.7144 -80.2350 North 411 473 16,500 -1,750 Descending Cleveland Center
Sat 06:02:22 PM 39.8247 -80.2289 North 398 458 15,000 -1,550 Descending Cleveland Center
Sat 06:03:22 PM 39.9289 -80.2203 North 381 438 13,400 -1,100 Descending Cleveland Center
Sat 06:04:22 PM 40.0289 -80.2061 North 374 430 12,800 -1,150 Descending Cleveland Center
Sat 06:05:22 PM 40.1331 -80.1867 North 349 402 11,100 -1,700 Descending Cleveland Center
Sat 06:06:22 PM 40.2250 -80.1725 North 338 389 9,400 -1,650 Descending Cleveland Center
Sat 06:07:22 PM 40.2997 -80.1583 North 274 315 7,800 -1,700 Descending Cleveland Center
Sat 06:08:22 PM 40.3644 -80.1472 North 268 308 6,000 -1,850 Descending Cleveland Center
Sat 06:09:22 PM 40.4436 -80.1331 North 263 303 4,100 -1,150 Descending Cleveland Center
Sat 06:10:22 PM 40.5122 -80.1189 North 252 290 3,700 -500 Descending Cleveland Center
Sat 06:11:22 PM 40.5769 -80.1103 North 242 278 3,100 -600 Descending Cleveland Center
Sat 06:13:00 PM 40.7524 -80.1500 North  Level FlightAware Approximate
Sat 06:20:00 PM 40.8000 -80.1500 North  Level FlightAware Approximate
Sat 06:21:00 PM 40.8020 -80.1609 North  Level Estimated
Sat 06:22:00 PM 40.8020 -80.1609 North  Level Estimated

Login

Don't have an account? Register now (free) for customized features, flight alerts, and more!